Time;durP1;ratioP1;P1;durP2;ratioP2;P2;SDS_P1;SDS_P2;PMS_P1;PMS_P2;Temp;Humidity;BMP_temperature;BMP_pressure;BME280_temperature;BME280_humidity;BME280_pressure;Samples;Min_cycle;Max_cycle;Signal;HPM_P1;HPM_P2
2022/09/26 00:01:11;;;;;;;15.27;13.68;;;;;;;13.77;89.22;99859.50;4946482;29;20059;-78
2022/09/26 00:03:36;;;;;;;22.48;14.00;;;;;;;13.77;89.04;99857.72;4947619;29;20055;-78
2022/09/26 00:06:04;;;;;;;15.95;13.38;;;;;;;13.79;89.26;99853.25;4947896;28;20090;-78
2022/09/26 00:08:29;;;;;;;18.05;13.48;;;;;;;13.78;89.58;99855.94;4945992;28;20499;-78
2022/09/26 00:10:57;;;;;;;14.35;11.98;;;;;;;13.79;89.38;99853.25;4950594;29;20048;-78
2022/09/26 00:13:22;;;;;;;14.77;13.13;;;;;;;13.85;88.94;99846.88;4951434;29;20039;-78
2022/09/26 00:15:48;;;;;;;16.25;12.98;;;;;;;13.82;89.08;99852.28;4963338;28;20044;-78
2022/09/26 00:18:13;;;;;;;16.58;12.40;;;;;;;13.76;89.61;99850.69;4953050;28;20046;-78
2022/09/26 00:20:38;;;;;;;20.60;13.95;;;;;;;13.71;90.29;99849.09;4956195;28;20514;-78
2022/09/26 00:23:04;;;;;;;14.43;11.93;;;;;;;13.73;90.12;99842.84;4951458;28;20043;-78
2022/09/26 00:25:29;;;;;;;15.32;11.77;;;;;;;13.76;89.78;99839.22;4950198;29;20052;-78
2022/09/26 00:27:54;;;;;;;13.05;11.55;;;;;;;13.74;89.98;99843.69;4951028;29;20036;-78
2022/09/26 00:30:19;;;;;;;14.10;12.43;;;;;;;13.66;90.40;99837.75;4960695;28;20054;-78
2022/09/26 00:32:45;;;;;;;19.85;11.82;;;;;;;13.62;90.44;99838.75;4950900;29;20107;-78
2022/09/26 00:35:10;;;;;;;14.23;12.27;;;;;;;13.48;91.34;99840.03;4952566;28;20035;-78
2022/09/26 00:37:35;;;;;;;17.30;12.05;;;;;;;13.45;91.43;99837.47;4952516;29;20036;-78
2022/09/26 00:40:01;;;;;;;12.40;11.10;;;;;;;13.46;91.59;99833.88;4952206;28;20038;-78
2022/09/26 00:42:26;;;;;;;13.25;11.57;;;;;;;13.37;91.97;99831.53;4948868;29;20071;-77
2022/09/26 00:44:55;;;;;;;14.35;11.38;;;;;;;13.36;92.65;99838.63;4952723;28;20042;-78
2022/09/26 00:47:58;;;;;;;15.60;12.35;;;;;;;13.27;93.22;99840.66;4948501;29;20117;-78
2022/09/26 00:50:30;;;;;;;14.63;12.23;;;;;;;13.23;93.67;99841.59;4942199;29;20039;-78
2022/09/26 00:53:00;;;;;;;;;;;;;;;13.13;94.85;99841.88;4952449;28;20098;-78
2022/09/26 00:55:31;;;;;;;16.10;12.05;;;;;;;13.15;94.33;99842.69;4952100;28;19961;-78
2022/09/26 00:58:04;;;;;;;13.07;11.18;;;;;;;13.10;94.17;99836.66;4950232;29;20043;-78
2022/09/26 01:00:30;;;;;;;17.20;11.23;;;;;;;13.09;94.75;99836.69;4948858;29;20039;-78
2022/09/26 01:02:56;;;;;;;11.80;10.15;;;;;;;13.08;94.51;99841.13;4948136;28;20054;-78
2022/09/26 01:05:22;;;;;;;10.82;9.68;;;;;;;13.08;94.05;99832.31;4949221;28;20043;-77
2022/09/26 01:07:51;;;;;;;12.68;10.85;;;;;;;13.02;93.60;99829.81;4951378;29;20067;-77
2022/09/26 01:10:16;;;;;;;11.52;9.80;;;;;;;13.12;93.11;99826.00;4949197;28;20071;-78
2022/09/26 01:12:42;;;;;;;13.00;9.23;;;;;;;13.06;93.18;99829.69;4950726;29;20031;-78
2022/09/26 01:15:09;;;;;;;10.43;9.35;;;;;;;13.09;92.64;99824.31;4945792;29;20130;-78
2022/09/26 01:17:37;;;;;;;12.07;9.77;;;;;;;13.02;92.75;99829.81;4946880;28;20034;-78
2022/09/26 01:20:19;;;;;;;10.25;9.25;;;;;;;13.03;92.90;99823.63;4948571;29;20073;-78
2022/09/26 01:23:17;;;;;;;11.77;9.25;;;;;;;13.09;91.04;99824.31;4954141;28;20042;-78
2022/09/26 01:26:27;;;;;;;9.77;8.77;;;;;;;12.95;90.72;99823.81;4957595;29;20039;-78
2022/09/26 01:28:52;;;;;;;10.80;8.30;;;;;;;12.90;91.53;99821.28;4917614;29;20490;-78
2022/09/26 01:34:54;;;;;;;7.88;6.15;;;;;;;12.72;84.58;99827.94;4961873;28;20117;-78
2022/09/26 01:37:40;;;;;;;6.40;5.65;;;;;;;12.57;83.83;99828.34;4950524;29;20039;-78
2022/09/26 01:40:20;;;;;;;7.95;5.63;;;;;;;12.45;84.54;99821.59;4955669;29;20422;-78
2022/09/26 01:42:58;;;;;;;6.47;5.63;;;;;;;12.32;86.05;99821.94;4948496;28;20035;-77
2022/09/26 01:45:33;;;;;;;7.78;5.80;;;;;;;12.32;86.97;99827.22;4948461;28;20067;-78
2022/09/26 01:48:15;;;;;;;5.97;5.38;;;;;;;12.43;86.05;99827.84;4949054;28;20498;-77
2022/09/26 01:50:44;;;;;;;;;;;;;;;12.31;85.56;99842.22;4950089;29;20047;-78
2022/09/26 01:53:22;;;;;;;6.03;4.85;;;;;;;12.33;85.69;99828.97;4950028;28;19973;-77
2022/09/26 01:55:58;;;;;;;11.18;4.43;;;;;;;12.19;86.55;99830.16;4946028;29;20046;-78
2022/09/26 01:58:27;;;;;;;;;;;;;;;12.04;86.71;99830.53;4944097;29;20079;-79
2022/09/26 02:00:57;;;;;;;7.03;4.53;;;;;;;11.77;87.30;99822.28;4949970;28;19965;-79
2022/09/26 02:03:27;;;;;;;5.35;4.40;;;;;;;11.60;88.31;99811.22;4951387;29;20051;-78
2022/09/26 02:06:02;;;;;;;4.78;4.30;;;;;;;11.40;90.71;99809.00;4961561;28;20502;-78
2022/09/26 02:08:33;;;;;;;5.03;4.57;;;;;;;11.34;92.71;99815.28;4948656;28;20108;-78
2022/09/26 02:11:07;;;;;;;5.25;4.70;;;;;;;11.22;94.70;99812.91;4948989;29;20047;-78
2022/09/26 02:13:40;;;;;;;5.88;4.30;;;;;;;11.18;94.78;99811.22;4947208;28;20525;-78
2022/09/26 02:16:15;;;;;;;5.05;4.10;;;;;;;11.21;95.38;99800.56;4947917;29;20042;-78
2022/09/26 02:18:46;;;;;;;5.78;5.18;;;;;;;11.24;96.12;99799.63;4946045;28;20127;-78
2022/09/26 02:21:16;;;;;;;4.30;3.90;;;;;;;11.20;95.78;99798.84;4950900;28;20113;-78
2022/09/26 02:23:42;;;;;;;4.97;4.47;;;;;;;11.17;96.24;99794.50;4955737;28;20032;-78
2022/09/26 02:26:07;;;;;;;4.82;4.32;;;;;;;11.17;96.44;99798.91;4944942;28;20144;-78
2022/09/26 02:28:32;;;;;;;6.40;5.70;;;;;;;11.22;97.44;99797.06;4948550;28;20035;-78
2022/09/26 02:31:03;;;;;;;5.20;4.70;;;;;;;11.26;97.33;99798.72;4946010;28;20067;-78
2022/09/26 02:33:29;;;;;;;5.38;4.88;;;;;;;11.29;97.68;99800.41;4945177;28;20039;-78
2022/09/26 02:35:55;;;;;;;5.95;4.82;;;;;;;11.24;97.86;99800.53;4947953;29;20162;-78
2022/09/26 02:38:28;;;;;;;5.65;5.15;;;;;;;11.23;98.64;99792.63;4944500;29;20024;-78
2022/09/26 02:41:48;;;;;;;7.20;5.20;;;;;;;11.30;99.30;99783.69;4936549;29;20138;-78
2022/09/26 02:44:35;;;;;;;5.13;4.28;;;;;;;11.39;99.31;99784.34;4945797;29;20055;-78
2022/09/26 02:47:22;;;;;;;5.25;4.75;;;;;;;11.46;98.27;99789.50;4949442;29;20039;-78
2022/09/26 02:50:25;;;;;;;6.30;5.40;;;;;;;11.47;99.18;99783.31;4953205;29;20043;-78
2022/09/26 02:53:06;;;;;;;6.20;5.60;;;;;;;11.48;99.89;99779.78;4948581;28;20035;-78
2022/09/26 02:56:10;;;;;;;6.32;5.75;;;;;;;11.54;100.00;99788.44;4942939;28;20067;-78
2022/09/26 02:59:06;;;;;;;6.07;5.47;;;;;;;11.57;100.00;99782.22;4951668;29;20517;-78
2022/09/26 03:01:55;;;;;;;6.30;5.70;;;;;;;11.61;100.00;99783.91;4946936;29;20670;-77
2022/09/26 03:04:32;;;;;;;5.57;5.05;;;;;;;11.63;100.00;99782.97;4946685;29;20491;-78
2022/09/26 03:07:03;;;;;;;7.13;6.43;;;;;;;11.69;100.00;99781.94;4943600;28;20036;-78
2022/09/26 03:09:29;;;;;;;6.65;5.63;;;;;;;11.76;100.00;99777.38;4949860;28;20031;-77
2022/09/26 03:11:58;;;;;;;6.50;5.63;;;;;;;11.80;100.00;99782.56;4945893;29;20562;-78
2022/09/26 03:14:24;;;;;;;5.88;5.10;;;;;;;11.84;100.00;99781.59;4944854;28;20036;-78
2022/09/26 03:16:51;;;;;;;10.13;6.85;;;;;;;11.85;100.00;99779.81;4948496;29;20498;-77
2022/09/26 03:19:30;;;;;;;7.32;5.18;;;;;;;11.91;100.00;99773.53;4946129;29;20032;-78
2022/09/26 03:21:58;;;;;;;8.32;5.93;;;;;;;11.89;100.00;99775.34;4960114;28;20028;-78
2022/09/26 03:24:25;;;;;;;9.35;6.18;;;;;;;11.85;100.00;99772.75;4950301;29;20039;-78
2022/09/26 03:26:51;;;;;;;6.55;5.68;;;;;;;11.88;100.00;99768.34;4947266;29;20067;-78
2022/09/26 03:29:18;;;;;;;6.22;5.63;;;;;;;11.83;100.00;99763.97;4947898;28;20043;-79
2022/09/26 03:31:45;;;;;;;6.82;5.47;;;;;;;11.81;100.00;99760.50;4948015;29;20039;-79
2022/09/26 03:34:11;;;;;;;7.53;6.60;;;;;;;11.91;100.00;99755.91;4946803;28;20047;-78
2022/09/26 03:36:38;;;;;;;8.00;6.47;;;;;;;12.02;100.00;99747.69;4948139;29;20035;-78
2022/09/26 03:39:05;;;;;;;10.65;7.57;;;;;;;12.04;100.00;99746.75;4945481;29;20034;-78
2022/09/26 03:41:35;;;;;;;11.52;9.05;;;;;;;12.04;100.00;99745.91;4945883;28;20042;-78
2022/09/26 03:44:07;;;;;;;8.38;5.70;;;;;;;11.97;100.00;99744.28;4958650;28;20077;-78
2022/09/26 03:46:52;;;;;;;7.43;6.10;;;;;;;11.92;100.00;99752.38;4946785;28;20051;-78
2022/09/26 03:49:18;;;;;;;7.18;5.78;;;;;;;11.90;100.00;99748.88;4947700;29;20073;-78
2022/09/26 03:51:44;;;;;;;7.00;6.10;;;;;;;11.91;100.00;99749.75;4951820;28;20064;-77
2022/09/26 03:54:11;;;;;;;10.73;7.45;;;;;;;11.97;100.00;99754.88;4949381;29;20039;-77
2022/09/26 03:56:37;;;;;;;8.52;7.32;;;;;;;11.98;100.00;99746.06;4945215;28;20514;-77
2022/09/26 03:59:02;;;;;;;8.15;5.57;;;;;;;11.92;100.00;99751.47;4946418;29;20031;-78
2022/09/26 04:01:28;;;;;;;5.75;5.00;;;;;;;11.90;100.00;99748.03;4944158;29;20038;-77
2022/09/26 04:03:55;;;;;;;7.30;5.50;;;;;;;11.88;100.00;99748.03;4944808;28;20095;-77
2022/09/26 04:06:20;;;;;;;9.00;6.88;;;;;;;11.87;100.00;99740.13;4946940;29;20071;-77
2022/09/26 04:08:49;;;;;;;10.38;5.53;;;;;;;11.87;100.00;99746.31;4944931;29;20491;-77
2022/09/26 04:11:18;;;;;;;6.63;5.43;;;;;;;11.89;100.00;99735.69;4944385;28;20069;-78
2022/09/26 04:13:43;;;;;;;8.90;7.32;;;;;;;11.82;100.00;99734.94;4948942;29;20028;-78
2022/09/26 04:16:09;;;;;;;8.18;6.80;;;;;;;11.90;100.00;99733.03;4947011;28;20514;-77
2022/09/26 04:18:35;;;;;;;10.10;7.18;;;;;;;11.90;100.00;99726.88;4948610;28;20047;-77
2022/09/26 04:21:04;;;;;;;8.77;6.30;;;;;;;11.91;100.00;99718.00;4947660;28;20027;-77
2022/09/26 04:23:32;;;;;;;9.85;6.47;;;;;;;11.94;100.00;99708.22;4957212;28;20027;-78
2022/09/26 04:26:07;;;;;;;7.13;6.32;;;;;;;11.97;100.00;99710.81;4944117;28;20046;-77
2022/09/26 04:28:34;;;;;;;38.50;26.02;;;;;;;11.94;100.00;99707.34;4946092;28;20128;-77
2022/09/26 04:31:02;;;;;;;8.90;7.97;;;;;;;11.89;100.00;99707.47;4945954;29;20031;-78
2022/09/26 04:33:31;;;;;;;8.30;7.38;;;;;;;11.88;100.00;99707.53;4932017;29;20031;-78
2022/09/26 04:36:09;;;;;;;10.93;6.47;;;;;;;11.82;100.00;99713.81;4947146;28;20031;-77
2022/09/26 04:38:35;;;;;;;9.10;6.82;;;;;;;11.77;100.00;99708.63;4941702;28;20043;-79
2022/09/26 04:41:18;;;;;;;10.13;7.50;;;;;;;11.73;100.00;99714.88;4934402;29;20102;-78
2022/09/26 04:43:47;;;;;;;8.63;7.40;;;;;;;11.74;100.00;99711.34;4944631;28;20102;-77
2022/09/26 04:46:21;;;;;;;9.52;7.55;;;;;;;11.72;100.00;99713.13;4944477;29;20031;-78
2022/09/26 04:48:49;;;;;;;7.78;6.78;;;;;;;11.69;100.00;99710.56;4946165;29;20098;-78
2022/09/26 04:51:18;;;;;;;11.32;6.72;;;;;;;11.66;100.00;99710.66;4953601;28;20027;-77
2022/09/26 04:53:45;;;;;;;10.35;8.13;;;;;;;11.64;100.00;99704.53;4940432;29;20027;-78
2022/09/26 04:56:18;;;;;;;13.95;11.70;;;;;;;11.54;100.00;99705.66;4948871;28;20031;-78
2022/09/26 04:58:44;;;;;;;15.18;9.50;;;;;;;11.46;100.00;99711.09;4942302;28;20095;-78
2022/09/26 05:01:16;;;;;;;11.15;9.15;;;;;;;11.48;100.00;99716.38;4945825;28;20031;-78
2022/09/26 05:04:06;;;;;;;11.98;8.73;;;;;;;11.45;100.00;99721.69;4947370;28;20043;-78
2022/09/26 05:06:32;;;;;;;17.10;12.88;;;;;;;11.54;100.00;99721.50;4943114;28;20035;-78
2022/09/26 05:08:59;;;;;;;10.30;8.88;;;;;;;11.64;100.00;99723.03;4942841;29;20039;-78
2022/09/26 05:11:38;;;;;;;11.80;9.43;;;;;;;11.70;100.00;99714.09;4941177;28;20057;-78
2022/09/26 05:14:07;;;;;;;11.38;9.45;;;;;;;11.76;100.00;99713.94;4944037;28;20031;-78
2022/09/26 05:16:33;;;;;;;13.45;9.98;;;;;;;11.81;100.00;99712.03;4942971;28;20039;-78
2022/09/26 05:18:59;;;;;;;14.98;10.15;;;;;;;11.77;100.00;99716.53;4942333;28;20044;-78
2022/09/26 05:21:26;;;;;;;13.52;11.07;;;;;;;11.83;100.00;99726.09;4946487;28;20470;-78
2022/09/26 05:26:42;;;;;;;14.35;11.50;;;;;;;11.86;100.00;99718.13;4945201;29;20390;-78
2022/09/26 05:29:08;;;;;;;16.77;11.45;;;;;;;11.91;100.00;99721.53;4952564;28;20154;-78
2022/09/26 05:31:55;;;;;;;18.15;11.32;;;;;;;11.91;100.00;99713.59;4944016;28;20039;-78
2022/09/26 05:34:23;;;;;;;12.90;9.55;;;;;;;11.95;100.00;99720.56;4950225;28;20403;-78
2022/09/26 05:36:51;;;;;;;16.80;12.10;;;;;;;12.01;100.00;99720.38;4929918;28;20038;-78
2022/09/26 05:42:04;;;;;;;20.65;11.57;;;;;;;12.06;100.00;99712.34;4944680;29;20038;-78
2022/09/26 05:44:30;;;;;;;13.95;11.23;;;;;;;12.11;100.00;99707.81;4952910;28;20097;-78
2022/09/26 05:46:56;;;;;;;15.40;12.02;;;;;;;12.10;100.00;99703.41;4941682;28;20035;-78
2022/09/26 05:49:22;;;;;;;14.63;11.43;;;;;;;12.15;100.00;99708.59;4945512;28;20031;-78
2022/09/26 05:51:47;;;;;;;14.48;11.50;;;;;;;12.19;100.00;99703.19;4955788;28;20039;-77
2022/09/26 05:54:16;;;;;;;15.50;11.93;;;;;;;12.26;100.00;99706.53;4943778;29;20476;-78
2022/09/26 05:56:41;;;;;;;20.60;15.10;;;;;;;12.20;100.00;99714.63;4943474;28;20068;-78
2022/09/26 05:59:15;;;;;;;19.42;13.27;;;;;;;12.23;100.00;99709.25;4943841;29;20110;-78
2022/09/26 06:01:59;;;;;;;17.73;12.80;;;;;;;12.20;100.00;99710.19;4941943;29;20127;-78
2022/09/26 06:04:45;;;;;;;18.88;11.93;;;;;;;12.25;100.00;99716.25;4941970;28;20418;-78
2022/09/26 06:07:28;;;;;;;15.93;12.45;;;;;;;12.26;100.00;99725.94;4943892;29;20055;-78
2022/09/26 06:09:54;;;;;;;17.00;11.98;;;;;;;12.33;100.00;99715.19;4940614;28;20047;-78
2022/09/26 06:12:33;;;;;;;16.58;13.88;;;;;;;12.41;100.00;99721.13;4943429;29;20031;-78
2022/09/26 06:14:59;;;;;;;19.92;15.85;;;;;;;12.52;100.00;99711.13;4944640;29;20047;-78
2022/09/26 06:17:25;;;;;;;19.15;14.50;;;;;;;12.60;100.00;99714.47;4948379;29;20126;-78
2022/09/26 06:19:51;;;;;;;18.27;15.13;;;;;;;12.67;100.00;99710.72;4945444;28;20027;-78
2022/09/26 06:22:17;;;;;;;18.77;13.32;;;;;;;12.73;100.00;99714.97;4951308;28;20028;-78
2022/09/26 06:24:43;;;;;;;17.90;14.07;;;;;;;12.71;100.00;99711.50;4948343;29;20097;-78
2022/09/26 06:27:12;;;;;;;20.10;13.48;;;;;;;12.70;100.00;99715.91;4947543;29;20027;-78
2022/09/26 06:29:38;;;;;;;18.35;14.80;;;;;;;12.68;100.00;99712.47;4945106;28;20521;-78
2022/09/26 06:32:03;;;;;;;19.98;15.20;;;;;;;12.59;100.00;99701.25;4948042;29;20035;-78
2022/09/26 06:34:47;;;;;;;18.67;14.35;;;;;;;12.55;100.00;99704.88;4947847;28;20509;-78
2022/09/26 06:37:31;;;;;;;24.65;20.80;;;;;;;12.59;100.00;99702.13;4947927;29;20422;-78
2022/09/26 06:39:59;;;;;;;21.45;16.25;;;;;;;12.67;100.00;99710.72;4945637;28;20094;-77
2022/09/26 06:42:24;;;;;;;24.80;17.50;;;;;;;12.69;100.00;99702.75;4947944;29;20086;-78
2022/09/26 06:45:12;;;;;;;17.55;14.70;;;;;;;12.72;100.00;99708.81;4948123;28;20043;-78
2022/09/26 06:48:01;;;;;;;19.20;13.27;;;;;;;12.76;100.00;99700.75;4948064;29;20512;-78
2022/09/26 06:50:50;;;;;;;17.52;12.70;;;;;;;12.85;100.00;99698.72;4948350;29;20422;-78
2022/09/26 06:53:16;;;;;;;14.05;12.43;;;;;;;12.85;100.00;99700.53;4952515;28;20043;-78
2022/09/26 06:55:41;;;;;;;15.38;12.60;;;;;;;12.92;100.00;99691.50;4949211;28;20047;-78
2022/09/26 06:58:06;;;;;;;16.70;12.55;;;;;;;13.02;99.12;99685.03;4946720;29;20043;-78
2022/09/26 07:00:46;;;;;;;13.15;11.73;;;;;;;13.20;97.16;99688.88;4945510;28;20041;-78
2022/09/26 07:03:25;;;;;;;12.40;10.10;;;;;;;13.41;95.94;99686.50;4944665;28;20122;-79
2022/09/26 07:05:59;;;;;;;12.90;11.50;;;;;;;13.52;94.28;99685.28;4947150;28;20565;-78
2022/09/26 07:08:25;;;;;;;13.27;9.40;;;;;;;13.68;94.75;99682.13;4932035;28;20505;-78
2022/09/26 07:10:52;;;;;;;35.33;22.67;;;;;;;13.72;92.75;99678.44;4946649;29;20067;-78
2022/09/26 07:13:23;;;;;;;13.68;9.50;;;;;;;13.93;91.56;99675.09;4953864;28;20030;-78
2022/09/26 07:15:49;;;;;;;11.90;10.02;;;;;;;14.09;90.08;99682.53;4946167;28;20044;-78
2022/09/26 07:18:33;;;;;;;16.00;10.80;;;;;;;14.14;88.45;99677.94;4946423;29;20050;-78
2022/09/26 07:21:03;;;;;;;11.15;9.35;;;;;;;14.14;88.84;99675.28;4946128;28;20054;-78
2022/09/26 07:23:57;;;;;;;14.00;9.75;;;;;;;14.20;88.46;99680.38;4948833;28;20195;-78
2022/09/26 07:26:23;;;;;;;11.15;8.25;;;;;;;14.14;87.07;99672.63;4957016;28;20760;-79
2022/09/26 07:28:48;;;;;;;9.75;8.07;;;;;;;14.03;87.12;99665.03;4948825;28;20118;-78
2022/09/26 07:31:14;;;;;;;10.40;8.27;;;;;;;13.89;87.31;99673.47;4940496;29;20039;-78
2022/09/26 07:33:58;;;;;;;9.85;8.15;;;;;;;13.99;87.51;99674.00;4954718;28;20483;-78
2022/09/26 07:36:23;;;;;;;11.65;9.23;;;;;;;14.15;86.47;99674.38;4956550;28;20039;-78
2022/09/26 07:38:49;;;;;;;11.82;8.20;;;;;;;14.12;84.50;99677.13;4946015;28;20098;-78
2022/09/26 07:41:16;;;;;;;10.82;6.63;;;;;;;14.30;85.98;99668.50;4948388;28;20046;-78
2022/09/26 07:43:42;;;;;;;9.20;8.27;;;;;;;14.23;85.80;99682.94;4950384;29;20031;-78
2022/09/26 07:51:44;;;;;;;13.63;9.52;;;;;;;14.05;86.09;99667.66;4950114;28;20454;-78
2022/09/26 07:54:16;;;;;;;13.70;10.70;;;;;;;14.08;87.44;99670.19;4946666;29;20094;-78
2022/09/26 07:57:02;;;;;;;12.07;9.20;;;;;;;14.18;87.26;99659.22;4955144;28;20147;-78
2022/09/26 07:59:35;;;;;;;13.13;10.50;;;;;;;14.29;87.16;99665.94;4953172;29;20522;-78
2022/09/26 08:02:21;;;;;;;15.25;10.77;;;;;;;14.38;86.74;99658.53;4946094;29;20046;-78
2022/09/26 08:04:46;;;;;;;12.38;11.07;;;;;;;14.56;86.34;99667.63;4943630;29;20091;-78
2022/09/26 08:07:11;;;;;;;16.10;11.68;;;;;;;14.61;85.62;99662.16;4943042;28;20039;-78
2022/09/26 08:09:46;;;;;;;12.35;11.10;;;;;;;14.58;85.69;99665.78;4943369;28;20039;-79
2022/09/26 08:12:47;;;;;;;14.48;11.77;;;;;;;14.42;86.38;99662.78;4944303;29;20044;-79
2022/09/26 08:15:28;;;;;;;;;;;;;;;14.44;87.06;99662.75;4945809;28;20031;-79
2022/09/26 08:18:03;;;;;;;13.18;11.85;;;;;;;14.39;86.67;99651.41;4946364;29;20381;-78
2022/09/26 08:20:29;;;;;;;13.20;11.02;;;;;;;14.33;86.75;99657.81;4946684;28;20039;-79
2022/09/26 08:22:54;;;;;;;14.20;11.13;;;;;;;14.29;87.25;99650.00;4951181;28;20031;-78
2022/09/26 08:25:20;;;;;;;17.33;12.23;;;;;;;14.41;86.35;99657.53;4943554;28;20043;-78
2022/09/26 08:27:58;;;;;;;12.50;10.93;;;;;;;14.52;85.45;99658.00;4950155;28;20039;-78
2022/09/26 08:30:24;;;;;;;11.70;10.25;;;;;;;14.54;85.22;99650.91;4955507;28;20497;-78
2022/09/26 08:32:53;;;;;;;12.63;11.20;;;;;;;14.56;83.41;99658.78;4951267;28;20149;-78
2022/09/26 08:35:19;;;;;;;13.85;10.40;;;;;;;14.74;83.80;99651.94;4956013;28;20031;-78
2022/09/26 08:38:14;;;;;;;15.93;11.50;;;;;;;15.04;82.38;99649.94;4952125;28;20043;-78
2022/09/26 08:40:55;;;;;;;14.32;11.98;;;;;;;15.18;80.24;99641.41;4948221;28;20054;-78
2022/09/26 08:44:25;;;;;;;12.18;10.38;;;;;;;15.27;79.15;99641.94;4947883;29;20206;-78
2022/09/26 08:47:16;;;;;;;14.10;10.23;;;;;;;15.37;79.28;99644.19;4944994;29;20057;-79
2022/09/26 08:50:13;;;;;;;12.57;9.43;;;;;;;15.32;77.90;99647.91;4946332;29;20051;-78
2022/09/26 08:52:55;;;;;;;12.50;9.23;;;;;;;15.45;76.96;99642.97;4936753;28;20509;-78
2022/09/26 08:55:33;;;;;;;10.65;9.55;;;;;;;15.72;76.52;99643.69;4948819;29;20103;-78
2022/09/26 08:58:07;;;;;;;13.02;9.68;;;;;;;15.86;75.48;99634.25;4946994;28;20064;-79
2022/09/26 09:00:36;;;;;;;14.32;11.25;;;;;;;15.82;74.39;99638.81;4948529;28;20051;-78
2022/09/26 09:03:11;;;;;;;;;;;;;;;15.92;72.32;99633.97;4949591;29;20031;-79
2022/09/26 09:05:48;;;;;;;14.40;8.88;;;;;;;16.02;70.33;99626.47;4929102;29;19935;-79
2022/09/26 09:08:35;;;;;;;9.07;6.78;;;;;;;15.89;65.88;99631.44;4949334;28;20039;-79
2022/09/26 09:11:19;;;;;;;8.55;6.45;;;;;;;15.90;65.71;99627.84;4946654;29;20194;-78
2022/09/26 09:14:04;;;;;;;15.35;10.48;;;;;;;15.98;65.81;99628.38;4945981;28;20032;-78
2022/09/26 09:17:01;;;;;;;11.52;7.85;;;;;;;16.05;64.69;99619.22;4945567;29;20047;-79
2022/09/26 09:19:59;;;;;;;9.73;8.02;;;;;;;16.32;65.49;99617.16;4946315;29;20119;-78
2022/09/26 09:23:12;;;;;;;7.90;7.03;;;;;;;16.55;64.80;99608.13;4948202;28;20035;-79
2022/09/26 09:26:13;;;;;;;7.55;6.85;;;;;;;16.35;62.32;99609.03;4939981;28;20450;-78
2022/09/26 09:29:00;;;;;;;7.82;7.20;;;;;;;16.08;62.99;99605.78;4959922;28;20039;-78
2022/09/26 09:31:31;;;;;;;6.90;6.25;;;;;;;16.15;63.70;99604.59;4948183;28;20035;-78
2022/09/26 09:34:30;;;;;;;9.05;6.47;;;;;;;16.31;62.29;99603.91;4939650;28;20051;-78
2022/09/26 09:37:42;;;;;;;8.75;5.00;;;;;;;16.21;62.20;99606.97;4949513;28;20043;-79
2022/09/26 09:40:35;;;;;;;5.72;5.20;;;;;;;16.00;60.96;99606.09;4946789;29;20039;-78
2022/09/26 09:43:25;;;;;;;7.60;5.63;;;;;;;15.94;59.68;99608.19;4945702;29;20043;-79
2022/09/26 09:45:54;;;;;;;6.32;5.72;;;;;;;16.21;61.00;99601.63;4948640;28;20070;-78
2022/09/26 09:48:24;;;;;;;6.53;5.13;;;;;;;16.34;60.86;99593.97;4952730;28;20106;-79
2022/09/26 09:51:02;;;;;;;8.43;5.57;;;;;;;16.39;58.32;99596.44;4940069;29;20039;-78
2022/09/26 09:53:59;;;;;;;6.25;5.45;;;;;;;16.37;57.41;99587.66;4954041;29;20492;-79
2022/09/26 09:56:36;;;;;;;5.47;4.95;;;;;;;16.37;58.69;99591.19;4950451;28;20036;-78
2022/09/26 09:59:21;;;;;;;6.43;5.93;;;;;;;16.51;60.05;99593.22;4950533;28;20039;-78
2022/09/26 10:02:14;;;;;;;5.97;5.43;;;;;;;16.64;58.65;99589.06;4969085;28;20508;-79
2022/09/26 10:04:52;;;;;;;8.68;6.78;;;;;;;16.65;57.85;99585.44;4965601;28;20506;-80
2022/09/26 10:07:18;;;;;;;6.65;5.28;;;;;;;16.72;58.19;99582.53;4951646;29;20031;-78
2022/09/26 10:10:02;;;;;;;9.98;6.13;;;;;;;16.91;57.70;99582.56;4952639;29;20346;-78
2022/09/26 10:16:14;;;;;;;9.77;5.90;;;;;;;16.83;56.33;99572.25;4958376;29;20045;-79
2022/09/26 10:18:59;;;;;;;6.18;5.18;;;;;;;16.88;56.61;99566.72;4948352;29;20031;-79
2022/09/26 10:21:31;;;;;;;6.72;5.88;;;;;;;16.91;55.91;99566.56;4957117;28;20038;-79
2022/09/26 10:23:57;;;;;;;;;;;;;;;16.86;54.91;99559.63;4960012;28;20409;-78
2022/09/26 10:26:38;;;;;;;6.15;5.50;;;;;;;17.23;56.33;99563.19;4955835;28;19954;-78
2022/09/26 10:29:22;;;;;;;10.98;6.63;;;;;;;17.43;53.01;99564.03;4957822;29;20036;-78
2022/09/26 10:31:55;;;;;;;6.68;5.93;;;;;;;17.73;52.94;99545.59;4956604;28;20402;-78
2022/09/26 10:34:29;;;;;;;10.30;9.55;;;;;;;17.84;51.15;99553.97;4953414;29;20039;-79
2022/09/26 10:36:55;;;;;;;7.25;5.97;;;;;;;17.94;52.88;99549.84;4948990;28;20552;-79
2022/09/26 10:42:18;;;;;;;8.82;5.88;;;;;;;18.14;52.41;99532.78;4955009;29;20028;-79
2022/09/26 10:44:46;;;;;;;6.57;5.97;;;;;;;17.95;53.36;99540.91;4945058;29;20190;-79
2022/09/26 10:47:26;;;;;;;7.10;4.80;;;;;;;17.94;52.84;99533.84;4956608;29;20054;-78
2022/09/26 10:50:15;;;;;;;;;;;;;;;17.79;53.39;99529.31;4951313;28;20058;-79
2022/09/26 10:53:07;;;;;;;6.20;5.63;;;;;;;17.84;53.26;99523.72;4948687;28;19967;-79
2022/09/26 10:55:42;;;;;;;5.75;5.30;;;;;;;18.04;52.81;99522.69;4954160;29;20122;-79
2022/09/26 10:58:16;;;;;;;7.07;5.65;;;;;;;17.95;51.94;99524.91;4954924;29;20038;-79
2022/09/26 11:00:44;;;;;;;8.98;5.85;;;;;;;18.06;51.76;99513.66;4948946;29;20039;-79
2022/09/26 11:03:18;;;;;;;6.60;6.00;;;;;;;18.25;51.36;99523.34;4949944;28;20028;-79
2022/09/26 11:06:27;;;;;;;5.43;5.00;;;;;;;18.32;50.07;99514.91;4942828;28;20620;-79
2022/09/26 11:09:02;;;;;;;5.57;5.07;;;;;;;18.54;50.68;99505.72;4950022;28;20067;-79
2022/09/26 11:11:49;;;;;;;6.70;6.07;;;;;;;18.59;50.79;99515.22;4943465;28;20050;-79
2022/09/26 11:14:24;;;;;;;6.50;5.93;;;;;;;18.49;49.40;99502.44;4944416;28;20034;-79
2022/09/26 11:16:56;;;;;;;8.55;7.90;;;;;;;18.69;50.30;99510.22;4946925;28;20517;-79
2022/09/26 11:19:47;;;;;;;9.70;9.00;;;;;;;18.64;48.83;99503.41;4952059;28;20028;-79
2022/09/26 11:22:27;;;;;;;7.40;6.80;;;;;;;18.66;46.57;99502.38;4957274;28;20027;-79
2022/09/26 11:25:10;;;;;;;5.68;5.18;;;;;;;18.82;47.03;99500.59;4934490;29;20042;-79
2022/09/26 11:28:01;;;;;;;7.85;7.25;;;;;;;18.94;47.43;99504.41;4946250;29;20082;-79
2022/09/26 11:30:47;;;;;;;6.22;5.72;;;;;;;18.95;48.16;99492.75;4947539;29;20403;-79
2022/09/26 11:33:17;;;;;;;6.60;6.10;;;;;;;19.19;47.04;99486.94;4950624;28;20519;-79
2022/09/26 11:36:21;;;;;;;8.40;7.80;;;;;;;19.20;45.56;99478.84;4944759;28;20501;-79
2022/09/26 11:38:55;;;;;;;9.00;7.32;;;;;;;19.46;45.56;99473.72;4948204;29;20134;-79
2022/09/26 11:41:37;;;;;;;7.68;7.03;;;;;;;19.65;45.67;99471.69;4949394;28;20036;-79
2022/09/26 11:44:28;;;;;;;7.85;7.13;;;;;;;19.87;44.31;99475.75;4955163;29;20039;-79
2022/09/26 11:47:55;;;;;;;6.75;6.10;;;;;;;20.05;43.80;99463.91;4944609;29;20139;-79
2022/09/26 11:50:50;;;;;;;9.02;8.23;;;;;;;20.00;43.13;99455.31;4946573;29;20036;-79
2022/09/26 11:53:43;;;;;;;7.63;7.05;;;;;;;19.94;43.22;99453.00;4951975;28;20031;-80
2022/09/26 11:56:41;;;;;;;7.72;7.15;;;;;;;19.53;43.35;99456.38;4951187;28;20162;-79
2022/09/26 11:59:37;;;;;;;9.15;8.50;;;;;;;20.01;41.57;99448.97;4947437;29;20058;-79
2022/09/26 12:02:38;;;;;;;6.15;5.50;;;;;;;19.84;42.63;99442.00;4947301;29;20035;-79
2022/09/26 12:05:43;;;;;;;8.65;6.18;;;;;;;19.61;43.78;99440.69;4947787;28;20035;-79
2022/09/26 12:08:36;;;;;;;12.70;9.10;;;;;;;19.38;43.30;99438.53;4946188;29;20050;-79
2022/09/26 12:11:27;;;;;;;6.65;6.05;;;;;;;19.23;43.40;99441.19;4947150;29;20101;-79
2022/09/26 12:13:58;;;;;;;5.63;5.13;;;;;;;19.81;43.06;99430.63;4945694;28;20039;-79
2022/09/26 12:16:45;;;;;;;5.95;5.45;;;;;;;19.63;43.68;99432.59;4944372;29;20039;-79
2022/09/26 12:19:35;;;;;;;11.27;10.60;;;;;;;19.14;43.54;99436.38;4949616;29;20498;-80
2022/09/26 12:24:57;;;;;;;6.90;6.30;;;;;;;19.09;43.69;99427.75;4943175;29;20046;-79
2022/09/26 12:27:38;;;;;;;6.47;5.97;;;;;;;18.92;43.49;99431.44;4945464;29;20095;-79